Terminal Aerodrome Forecast
Issued by NWS Cleveland, OH

Home | Current Version | Previous Version | Graphics & Text | Print | Product List | Glossary Off
Versions: 1 2 3 4 5 6 7 8 9 10 11 12 13 14 15 16

000
FTUS41 KCLE 251410 AAA
TAFCAK
TAF AMD
KCAK 251410Z 2514/2612 24008KT P6SM OVC009
     FM251500 25008KT P6SM SCT009 OVC012
      TEMPO 2516/2518 SCT012
     FM251800 25012G18KT P6SM SCT012 BKN045
      TEMPO 2522/2602 4SM TSRA BR OVC025CB
     FM260200 24008KT P6SM SCT025 BKN060
     FM260600 29006KT 3SM BR BKN012=

USA.gov is the U.S. government's official web portal to all federal, state and local government web resources and services.